createdAt,value
2023-01-03T00:00:41.136Z,13.65
2023-01-03T00:02:43.051Z,13.65
2023-01-03T00:04:49.411Z,13.64
2023-01-03T00:06:53.198Z,13.63
2023-01-03T00:08:56.020Z,13.63
2023-01-03T00:10:58.435Z,13.61
2023-01-03T00:13:00.674Z,13.60
2023-01-03T00:15:03.225Z,13.60
2023-01-03T00:17:06.404Z,13.58
2023-01-03T00:19:10.476Z,13.58
2023-01-03T00:21:13.840Z,13.55
2023-01-03T00:23:17.012Z,13.55
2023-01-03T00:25:18.721Z,13.54
2023-01-03T00:27:36.881Z,13.52
2023-01-03T00:29:38.672Z,13.50
2023-01-03T00:31:41.309Z,13.49
2023-01-03T00:33:43.084Z,13.48
2023-01-03T00:35:47.215Z,13.46
2023-01-03T00:37:48.858Z,13.45
2023-01-03T00:39:50.662Z,13.46
2023-01-03T00:41:52.646Z,13.46
2023-01-03T00:43:56.506Z,13.44
2023-01-03T00:45:58.864Z,13.43
2023-01-03T00:48:00.469Z,13.41
2023-01-03T00:50:02.199Z,13.40
2023-01-03T00:52:03.873Z,13.40
2023-01-03T00:54:09.189Z,13.37
2023-01-03T00:56:14.037Z,13.37
2023-01-03T00:58:16.071Z,13.35
2023-01-03T01:00:17.683Z,13.33
2023-01-03T01:02:20.732Z,13.33
2023-01-03T01:04:28.790Z,13.32
2023-01-03T01:06:33.872Z,13.32
2023-01-03T01:08:38.379Z,13.31
2023-01-03T01:11:01.768Z,13.31
2023-01-03T01:13:03.705Z,13.29
2023-01-03T01:15:06.512Z,13.29
2023-01-03T01:17:11.597Z,13.28
2023-01-03T01:19:13.664Z,13.26
2023-01-03T01:21:20.138Z,13.25
2023-01-03T01:23:21.778Z,13.23
2023-01-03T01:28:43.131Z,13.19
2023-01-03T01:33:56.604Z,13.13
2023-01-03T01:35:58.374Z,13.11
2023-01-03T01:37:59.930Z,13.10
2023-01-03T01:40:05.157Z,13.09
2023-01-03T01:42:31.098Z,13.06
2023-01-03T01:45:03.226Z,13.02
2023-01-03T01:47:25.831Z,13.00
2023-01-03T01:49:29.391Z,12.96
2023-01-03T01:51:34.009Z,12.94
2023-01-03T01:53:37.914Z,12.90
2023-01-03T01:55:52.068Z,12.87
2023-01-03T01:57:54.019Z,12.84
2023-01-03T01:59:59.732Z,12.83
2023-01-03T02:02:01.603Z,12.80
2023-01-03T02:04:08.629Z,12.78
2023-01-03T02:06:15.194Z,12.74
2023-01-03T02:08:17.547Z,12.74
2023-01-03T02:10:32.554Z,12.71
2023-01-03T02:13:08.336Z,12.68
2023-01-03T02:15:49.515Z,12.64
2023-01-03T02:18:07.140Z,12.61
2023-01-03T02:20:46.825Z,12.58
2023-01-03T02:23:12.371Z,12.56
2023-01-03T02:25:35.065Z,12.52
2023-01-03T02:27:59.259Z,12.49
2023-01-03T02:30:24.847Z,12.46
2023-01-03T02:32:51.276Z,12.43
2023-01-03T02:34:58.669Z,12.42
2023-01-03T02:37:14.582Z,12.40
2023-01-03T02:39:45.246Z,12.37
2023-01-03T02:42:30.087Z,12.34
2023-01-03T02:44:35.833Z,12.32
2023-01-03T02:46:47.246Z,12.30
2023-01-03T02:49:05.964Z,12.26
2023-01-03T02:51:24.569Z,12.25
2023-01-03T02:53:33.292Z,12.24
2023-01-03T02:55:38.830Z,12.20
2023-01-03T02:57:47.837Z,12.17
2023-01-03T02:59:54.236Z,12.18
2023-01-03T03:01:55.942Z,12.16
2023-01-03T03:04:01.274Z,12.16
2023-01-03T03:06:23.199Z,12.15
2023-01-03T03:08:26.294Z,12.12
2023-01-03T03:10:50.371Z,12.12
2023-01-03T03:13:13.225Z,12.08
2023-01-03T03:15:17.626Z,12.08
2023-01-03T03:17:28.895Z,12.07
2023-01-03T03:20:15.830Z,12.07
2023-01-03T03:22:58.535Z,12.04
2023-01-03T03:25:10.798Z,12.03
2023-01-03T03:27:34.477Z,12.02
2023-01-03T03:29:36.152Z,11.99
2023-01-03T03:31:44.246Z,11.98
2023-01-03T03:34:07.212Z,11.95
2023-01-03T03:36:17.057Z,11.94
2023-01-03T03:38:26.371Z,11.91
2023-01-03T03:40:51.349Z,11.88
2023-01-03T03:43:58.063Z,11.83
2023-01-03T03:46:14.736Z,11.79
2023-01-03T03:48:52.455Z,11.75
2023-01-03T03:51:17.565Z,11.72
2023-01-03T03:53:25.181Z,11.71
2023-01-03T03:55:34.648Z,11.67
2023-01-03T03:57:43.275Z,11.65
2023-01-03T03:59:50.481Z,11.64
2023-01-03T04:01:56.176Z,11.61
2023-01-03T04:04:03.703Z,11.58
2023-01-03T04:06:22.606Z,11.54
2023-01-03T04:08:24.927Z,11.51
2023-01-03T04:10:28.330Z,11.49
2023-01-03T04:12:31.958Z,11.46
2023-01-03T04:14:33.625Z,11.42
2023-01-03T04:16:39.869Z,11.40
2023-01-03T04:18:41.466Z,11.38
2023-01-03T04:20:45.947Z,11.35
2023-01-03T04:22:49.812Z,11.33
2023-01-03T04:24:56.856Z,11.29
2023-01-03T04:27:01.147Z,11.27
2023-01-03T04:29:05.652Z,11.24
2023-01-03T04:31:07.241Z,11.21
2023-01-03T04:33:09.200Z,11.18
2023-01-03T04:35:11.495Z,11.17
2023-01-03T04:37:13.362Z,11.14
2023-01-03T04:39:14.958Z,11.12
2023-01-03T04:41:16.793Z,11.09
2023-01-03T04:43:37.113Z,11.06
2023-01-03T04:45:39.574Z,11.05
2023-01-03T04:47:44.335Z,11.06
2023-01-03T04:49:52.199Z,11.02
2023-01-03T04:51:53.960Z,11.00
2023-01-03T04:53:56.103Z,10.98
2023-01-03T04:55:57.816Z,10.94
2023-01-03T04:57:59.401Z,10.93
2023-01-03T05:00:03.285Z,10.90
2023-01-03T05:02:05.195Z,10.89
2023-01-03T05:04:12.890Z,10.86
2023-01-03T05:06:15.145Z,10.87
2023-01-03T05:08:16.709Z,10.83
2023-01-03T05:10:18.318Z,10.81
2023-01-03T05:12:20.491Z,10.79
2023-01-03T05:14:22.242Z,10.78
2023-01-03T05:16:23.951Z,10.77
2023-01-03T05:18:28.114Z,10.73
2023-01-03T05:20:50.275Z,10.71
2023-01-03T05:23:10.217Z,10.68
2023-01-03T05:25:30.876Z,10.64
2023-01-03T05:27:33.644Z,10.58
2023-01-03T05:29:36.644Z,10.55
2023-01-03T05:31:38.604Z,10.54
2023-01-03T05:33:41.113Z,10.53
2023-01-03T05:35:48.431Z,10.50
2023-01-03T05:37:55.763Z,10.48
2023-01-03T05:39:57.639Z,10.44
2023-01-03T05:42:02.354Z,10.42
2023-01-03T05:44:08.218Z,10.40
2023-01-03T05:46:09.985Z,10.36
2023-01-03T05:48:11.545Z,10.33
2023-01-03T05:50:13.501Z,10.31
2023-01-03T05:52:15.161Z,10.29
2023-01-03T05:54:18.550Z,10.28
2023-01-03T05:56:20.223Z,10.25
2023-01-03T05:58:21.826Z,10.26
2023-01-03T06:00:23.533Z,10.24
2023-01-03T06:02:25.260Z,10.24
2023-01-03T06:04:26.735Z,10.19
2023-01-03T06:06:28.537Z,10.18
2023-01-03T06:08:30.432Z,10.14
2023-01-03T06:10:32.113Z,10.12
2023-01-03T06:12:33.972Z,10.10
2023-01-03T06:14:35.452Z,10.06
2023-01-03T06:16:56.102Z,10.05
2023-01-03T06:18:59.550Z,10.02
2023-01-03T06:21:04.143Z,10.00
2023-01-03T06:23:06.041Z,9.96
2023-01-03T06:25:07.898Z,9.93
2023-01-03T06:27:09.504Z,9.91
2023-01-03T06:29:13.932Z,9.88
2023-01-03T06:31:16.501Z,9.86
2023-01-03T06:33:18.299Z,9.83
2023-01-03T06:35:20.227Z,9.80
2023-01-03T06:37:23.162Z,9.77
2023-01-03T06:39:25.570Z,9.73
2023-01-03T06:41:27.318Z,9.70
2023-01-03T06:43:29.238Z,9.68
2023-01-03T06:45:49.502Z,9.65
2023-01-03T06:48:09.681Z,9.60
2023-01-03T06:50:30.052Z,9.57
2023-01-03T06:52:50.735Z,9.54
2023-01-03T06:54:53.716Z,9.50
2023-01-03T06:56:55.702Z,9.47
2023-01-03T06:58:57.456Z,9.46
2023-01-03T07:01:05.580Z,9.45
2023-01-03T07:03:11.327Z,9.43
2023-01-03T07:05:13.994Z,9.40
2023-01-03T07:07:15.829Z,9.41
2023-01-03T07:09:17.924Z,9.38
2023-01-03T07:11:20.684Z,9.37
2023-01-03T07:13:41.626Z,9.35
2023-01-03T07:15:45.120Z,9.32
2023-01-03T07:17:46.835Z,9.29
2023-01-03T07:19:48.396Z,9.28
2023-01-03T07:21:52.135Z,9.24
2023-01-03T07:23:55.635Z,9.23
2023-01-03T07:25:57.102Z,9.20
2023-01-03T07:28:05.409Z,9.17
2023-01-03T07:30:09.825Z,9.15
2023-01-03T07:32:14.217Z,9.14
2023-01-03T07:34:18.614Z,9.11
2023-01-03T07:36:21.797Z,9.09
2023-01-03T07:38:23.542Z,9.07
2023-01-03T07:40:25.170Z,9.05
2023-01-03T07:42:45.545Z,9.03
2023-01-03T07:44:47.587Z,9.01
2023-01-03T07:46:49.243Z,9.02
2023-01-03T07:48:52.834Z,9.00
2023-01-03T07:50:58.214Z,8.99
2023-01-03T07:53:17.031Z,9.00
2023-01-03T07:55:21.139Z,9.00
2023-01-03T07:57:22.840Z,9.01
2023-01-03T07:59:24.536Z,9.02
2023-01-03T08:01:28.547Z,9.03
2023-01-03T08:03:30.177Z,9.05
2023-01-03T08:05:40.422Z,9.06
2023-01-03T08:07:41.995Z,9.08
2023-01-03T08:10:02.406Z,9.10
2023-01-03T08:12:22.678Z,9.14
2023-01-03T08:14:26.786Z,9.16
2023-01-03T08:16:28.908Z,9.18
2023-01-03T08:18:30.777Z,9.22
2023-01-03T08:20:32.523Z,9.26
2023-01-03T08:22:34.142Z,9.29
2023-01-03T08:24:35.737Z,9.34
2023-01-03T08:26:37.821Z,9.37
2023-01-03T08:28:40.859Z,9.41
2023-01-03T08:30:48.664Z,9.46
2023-01-03T08:32:50.600Z,9.49
2023-01-03T08:34:54.347Z,9.52
2023-01-03T08:37:01.721Z,9.55
2023-01-03T08:39:09.339Z,9.57
2023-01-03T08:41:13.736Z,9.62
2023-01-03T08:43:18.475Z,9.64
2023-01-03T08:45:20.671Z,9.69
2023-01-03T08:47:22.716Z,9.72
2023-01-03T08:49:24.936Z,9.74
2023-01-03T08:51:28.379Z,9.79
2023-01-03T08:53:30.032Z,9.80
2023-01-03T08:55:33.299Z,9.83
2023-01-03T08:57:35.129Z,9.85
2023-01-03T08:59:36.707Z,9.89
2023-01-03T09:01:39.023Z,9.94
2023-01-03T09:03:41.834Z,9.99
2023-01-03T09:05:46.372Z,10.00
2023-01-03T09:07:48.025Z,10.06
2023-01-03T09:09:49.938Z,10.07
2023-01-03T09:11:51.752Z,10.12
2023-01-03T09:13:55.542Z,10.16
2023-01-03T09:16:10.050Z,10.19
2023-01-03T09:18:12.681Z,10.23
2023-01-03T09:20:16.380Z,10.27
2023-01-03T09:22:20.899Z,10.31
2023-01-03T09:24:22.600Z,10.34
2023-01-03T09:26:25.025Z,10.37
2023-01-03T09:28:29.895Z,10.40
2023-01-03T09:30:31.617Z,10.44
2023-01-03T09:32:33.407Z,10.47
2023-01-03T09:34:35.431Z,10.49
2023-01-03T09:36:38.708Z,10.54
2023-01-03T09:38:40.482Z,10.56
2023-01-03T09:40:45.344Z,10.60
2023-01-03T09:43:05.532Z,10.62
2023-01-03T09:45:08.281Z,10.67
2023-01-03T09:47:20.178Z,10.68
2023-01-03T09:49:26.338Z,10.72
2023-01-03T09:52:02.236Z,10.73
2023-01-03T09:54:23.962Z,10.76
2023-01-03T09:56:25.824Z,10.77
2023-01-03T09:58:46.743Z,10.80
2023-01-03T10:01:15.253Z,10.83
2023-01-03T10:03:50.305Z,10.83
2023-01-03T10:06:20.731Z,10.83
2023-01-03T10:08:31.034Z,10.88
2023-01-03T10:10:45.013Z,10.89
2023-01-03T10:13:05.065Z,10.93
2023-01-03T10:15:27.812Z,10.96
2023-01-03T10:18:37.545Z,10.98
2023-01-03T10:21:07.794Z,11.01
2023-01-03T10:23:11.210Z,11.02
2023-01-03T10:25:20.489Z,11.02
2023-01-03T10:27:26.646Z,11.07
2023-01-03T10:29:33.429Z,11.11
2023-01-03T10:32:16.224Z,11.12
2023-01-03T10:34:17.901Z,11.15
2023-01-03T10:36:21.834Z,11.16
2023-01-03T10:38:25.854Z,11.18
2023-01-03T10:40:49.778Z,11.18
2023-01-03T10:42:55.430Z,11.24
2023-01-03T10:45:01.787Z,11.25
2023-01-03T10:47:16.041Z,11.24
2023-01-03T10:49:30.562Z,11.29
2023-01-03T10:51:43.706Z,11.30
2023-01-03T10:53:45.563Z,11.31
2023-01-03T10:55:50.840Z,11.33
2023-01-03T10:57:52.408Z,11.35
2023-01-03T11:00:01.320Z,11.36
2023-01-03T11:02:09.259Z,11.37
2023-01-03T11:04:22.570Z,11.42
2023-01-03T11:06:24.609Z,11.45
2023-01-03T11:08:46.056Z,11.45
2023-01-03T11:10:57.497Z,11.50
2023-01-03T11:13:01.532Z,11.54
2023-01-03T11:15:37.907Z,11.58
2023-01-03T11:18:02.612Z,11.62
2023-01-03T11:20:18.184Z,11.68
2023-01-03T11:22:39.220Z,11.70
2023-01-03T11:24:50.277Z,11.75
2023-01-03T11:27:11.106Z,11.79
2023-01-03T11:29:30.215Z,11.85
2023-01-03T11:31:54.943Z,11.88
2023-01-03T11:34:23.596Z,11.97
2023-01-03T11:36:57.446Z,12.01
2023-01-03T11:39:45.907Z,12.05
2023-01-03T11:42:00.115Z,12.07
2023-01-03T11:44:32.611Z,12.14
2023-01-03T11:46:47.592Z,12.17
2023-01-03T11:49:16.389Z,12.21
2023-01-03T11:51:24.638Z,12.25
2023-01-03T11:53:35.966Z,12.28
2023-01-03T11:56:01.221Z,12.33
2023-01-03T11:58:30.416Z,12.40
2023-01-03T12:01:09.392Z,12.44
2023-01-03T12:03:48.386Z,12.47
2023-01-03T12:06:08.409Z,12.52
2023-01-03T12:08:53.407Z,12.56
2023-01-03T12:11:06.071Z,12.64
2023-01-03T12:13:12.496Z,12.73
2023-01-03T12:15:24.940Z,12.77
2023-01-03T12:17:52.991Z,12.81
2023-01-03T12:20:19.753Z,12.89
2023-01-03T12:22:35.894Z,12.92
2023-01-03T12:24:52.655Z,13.00
2023-01-03T12:27:05.705Z,13.07
2023-01-03T12:29:25.207Z,13.11
2023-01-03T12:31:56.354Z,13.16
2023-01-03T12:34:19.715Z,13.21
2023-01-03T12:36:45.471Z,13.30
2023-01-03T12:39:07.871Z,13.32
2023-01-03T12:41:34.405Z,13.38
2023-01-03T12:43:46.894Z,13.38
2023-01-03T12:46:13.110Z,13.41
2023-01-03T12:48:33.190Z,13.41
2023-01-03T12:50:34.699Z,13.45
2023-01-03T12:52:41.209Z,13.46
2023-01-03T12:55:02.451Z,13.48
2023-01-03T12:57:04.237Z,13.52
2023-01-03T12:59:15.417Z,13.60
2023-01-03T13:01:35.869Z,13.66
2023-01-03T13:03:43.278Z,13.70
2023-01-03T13:05:50.530Z,13.78
2023-01-03T13:08:04.671Z,13.81
2023-01-03T13:10:18.421Z,13.80
2023-01-03T13:12:28.024Z,13.78
2023-01-03T13:14:30.153Z,13.77
2023-01-03T13:16:35.671Z,13.77
2023-01-03T13:18:37.495Z,13.82
2023-01-03T13:20:47.872Z,13.83
2023-01-03T13:23:04.233Z,13.83
2023-01-03T13:25:27.832Z,13.82
2023-01-03T13:27:37.891Z,13.88
2023-01-03T13:29:45.907Z,13.89
2023-01-03T13:32:06.190Z,13.90
2023-01-03T13:34:19.085Z,13.92
2023-01-03T13:36:22.063Z,13.98
2023-01-03T13:38:38.190Z,13.98
2023-01-03T13:41:16.769Z,14.05
2023-01-03T13:43:26.832Z,14.09
2023-01-03T13:45:39.301Z,14.13
2023-01-03T13:47:43.655Z,14.21
2023-01-03T13:49:53.664Z,14.25
2023-01-03T13:51:57.883Z,14.25
2023-01-03T13:54:13.824Z,14.30
2023-01-03T13:56:15.280Z,14.33
2023-01-03T14:01:37.560Z,14.36
2023-01-03T14:03:58.286Z,14.37
2023-01-03T14:06:17.455Z,14.37
2023-01-03T14:08:35.514Z,14.39
2023-01-03T14:11:07.045Z,14.35
2023-01-03T14:13:27.627Z,14.30
2023-01-03T14:15:32.109Z,14.28
2023-01-03T14:17:36.383Z,14.25
2023-01-03T14:19:42.618Z,14.22
2023-01-03T14:21:55.245Z,14.23
2023-01-03T14:24:01.114Z,14.18
2023-01-03T14:26:17.685Z,14.16
2023-01-03T14:28:26.450Z,14.16
2023-01-03T14:30:32.768Z,14.13
2023-01-03T14:32:35.978Z,14.13
2023-01-03T14:34:44.352Z,14.05
2023-01-03T14:36:50.353Z,14.04
2023-01-03T14:39:01.214Z,14.00
2023-01-03T14:41:03.470Z,13.97
2023-01-03T14:43:08.295Z,13.95
2023-01-03T14:45:18.355Z,13.90
2023-01-03T14:47:20.192Z,13.89
2023-01-03T14:49:25.756Z,13.86
2023-01-03T14:51:31.494Z,13.85
2023-01-03T14:53:34.587Z,13.81
2023-01-03T14:55:39.745Z,13.76
2023-01-03T14:57:44.689Z,13.72
2023-01-03T14:59:47.452Z,13.68
2023-01-03T15:01:49.651Z,13.65
2023-01-03T15:03:55.530Z,13.61
2023-01-03T15:06:01.124Z,13.56
2023-01-03T15:08:14.738Z,13.50
2023-01-03T15:10:48.216Z,13.45
2023-01-03T15:12:56.251Z,13.42
2023-01-03T15:15:29.348Z,13.35
2023-01-03T15:17:32.569Z,13.30
2023-01-03T15:19:35.721Z,13.27
2023-01-03T15:21:38.591Z,13.23
2023-01-03T15:23:43.015Z,13.19
2023-01-03T15:25:44.632Z,13.15
2023-01-03T15:27:50.918Z,13.11
2023-01-03T15:29:52.917Z,13.06
2023-01-03T15:31:54.715Z,13.01
2023-01-03T15:34:01.737Z,12.95
2023-01-03T15:36:26.347Z,12.89
2023-01-03T15:38:34.456Z,12.83
2023-01-03T15:40:47.466Z,12.79
2023-01-03T15:43:08.333Z,12.72
2023-01-03T15:45:30.222Z,12.64
2023-01-03T15:47:31.934Z,12.60
2023-01-03T15:49:40.221Z,12.53
2023-01-03T15:51:51.705Z,12.46
2023-01-03T15:53:53.589Z,12.40
2023-01-03T15:56:19.257Z,12.34
2023-01-03T15:58:20.966Z,12.28
2023-01-03T16:00:24.345Z,12.24
2023-01-03T16:02:26.396Z,12.21
2023-01-03T16:04:31.076Z,12.16
2023-01-03T16:06:33.014Z,12.14
2023-01-03T16:08:39.850Z,12.08
2023-01-03T16:10:41.525Z,12.03
2023-01-03T16:12:43.550Z,11.99
2023-01-03T16:14:48.170Z,11.95
2023-01-03T16:16:53.846Z,11.92
2023-01-03T16:18:56.042Z,11.88
2023-01-03T16:20:57.775Z,11.86
2023-01-03T16:23:01.740Z,11.81
2023-01-03T16:25:05.467Z,11.79
2023-01-03T16:27:24.690Z,11.74
2023-01-03T16:29:26.143Z,11.72
2023-01-03T16:31:33.651Z,11.69
2023-01-03T16:33:39.088Z,11.66
2023-01-03T16:35:40.792Z,11.63
2023-01-03T16:37:43.597Z,11.60
2023-01-03T16:39:48.325Z,11.57
2023-01-03T16:42:11.365Z,11.55
2023-01-03T16:44:17.219Z,11.51
2023-01-03T16:46:23.813Z,11.49
2023-01-03T16:48:33.530Z,11.47
2023-01-03T16:50:40.047Z,11.45
2023-01-03T16:52:49.179Z,11.43
2023-01-03T16:54:51.378Z,11.40
2023-01-03T16:56:53.113Z,11.38
2023-01-03T16:58:54.625Z,11.35
2023-01-03T17:00:56.343Z,11.34
2023-01-03T17:02:59.922Z,11.33
2023-01-03T17:05:04.858Z,11.31
2023-01-03T17:07:09.736Z,11.29
2023-01-03T17:09:26.696Z,11.25
2023-01-03T17:11:28.992Z,11.22
2023-01-03T17:13:38.001Z,11.20
2023-01-03T17:15:41.256Z,11.17
2023-01-03T17:17:42.849Z,11.14
2023-01-03T17:20:04.601Z,11.13
2023-01-03T17:22:07.335Z,11.11
2023-01-03T17:24:16.549Z,11.08
2023-01-03T17:26:21.439Z,11.05
2023-01-03T17:28:23.298Z,11.04
2023-01-03T17:30:27.948Z,11.04
2023-01-03T17:32:30.546Z,11.02
2023-01-03T17:34:36.763Z,11.00
2023-01-03T17:36:45.447Z,10.99
2023-01-03T17:38:53.031Z,10.97
2023-01-03T17:41:02.153Z,10.95
2023-01-03T17:43:06.517Z,10.92
2023-01-03T17:45:30.434Z,10.91
2023-01-03T17:47:51.866Z,10.89
2023-01-03T17:49:53.734Z,10.87
2023-01-03T17:51:59.560Z,10.86
2023-01-03T17:54:01.770Z,10.85
2023-01-03T17:56:03.497Z,10.85
2023-01-03T17:58:05.700Z,10.83
2023-01-03T18:00:28.588Z,10.82
2023-01-03T18:02:31.513Z,10.82
2023-01-03T18:05:05.369Z,10.81
2023-01-03T18:07:04.113Z,10.81
2023-01-03T18:09:13.684Z,10.80
2023-01-03T18:11:18.842Z,10.81
2023-01-03T18:13:22.559Z,10.81
2023-01-03T18:15:24.184Z,10.80
2023-01-03T18:17:29.901Z,10.80
2023-01-03T18:19:33.911Z,10.82
2023-01-03T18:21:38.957Z,10.83
2023-01-03T18:23:40.561Z,10.81
2023-01-03T18:25:42.151Z,10.82
2023-01-03T18:27:55.812Z,10.81
2023-01-03T18:29:58.366Z,10.81
2023-01-03T18:32:01.948Z,10.81
2023-01-03T18:34:04.487Z,10.82
2023-01-03T18:36:06.939Z,10.83
2023-01-03T18:38:31.098Z,10.83
2023-01-03T18:40:32.883Z,10.84
2023-01-03T18:42:53.951Z,10.87
2023-01-03T18:44:55.636Z,10.87
2023-01-03T18:46:57.751Z,10.88
2023-01-03T18:48:59.525Z,10.88
2023-01-03T18:51:01.295Z,10.89
2023-01-03T18:53:04.541Z,10.90
2023-01-03T18:55:14.797Z,10.91
2023-01-03T18:57:22.081Z,10.93
2023-01-03T18:59:32.180Z,10.94
2023-01-03T19:01:34.161Z,10.93
2023-01-03T19:03:40.234Z,10.95
2023-01-03T19:05:42.026Z,10.96
2023-01-03T19:07:45.500Z,10.99
2023-01-03T19:09:47.285Z,10.99
2023-01-03T19:11:49.474Z,11.00
2023-01-03T19:13:55.221Z,11.01
2023-01-03T19:16:00.168Z,11.02
2023-01-03T19:18:04.075Z,11.02
2023-01-03T19:20:06.943Z,11.03
2023-01-03T19:22:20.610Z,11.02
2023-01-03T19:24:40.551Z,11.03
2023-01-03T19:26:51.798Z,11.03
2023-01-03T19:28:56.899Z,11.04
2023-01-03T19:30:58.773Z,11.04
2023-01-03T19:33:12.151Z,11.04
2023-01-03T19:35:15.832Z,11.05
2023-01-03T19:37:26.433Z,11.06
2023-01-03T19:39:33.663Z,11.05
2023-01-03T19:42:04.538Z,11.05
2023-01-03T19:44:06.181Z,11.06
2023-01-03T19:46:18.412Z,11.07
2023-01-03T19:48:23.219Z,11.07
2023-01-03T19:50:30.831Z,11.07
2023-01-03T19:52:32.412Z,11.07
2023-01-03T19:54:34.137Z,11.06
2023-01-03T19:56:36.039Z,11.09
2023-01-03T19:58:42.075Z,11.09
2023-01-03T20:00:47.501Z,11.10
2023-01-03T20:03:00.915Z,11.10
2023-01-03T20:05:03.530Z,11.10
2023-01-03T20:07:13.472Z,11.10
2023-01-03T20:09:15.507Z,11.11
2023-01-03T20:11:22.783Z,11.11
2023-01-03T20:13:26.815Z,11.11
2023-01-03T20:15:42.537Z,11.08
2023-01-03T20:17:44.229Z,11.10
2023-01-03T20:19:45.987Z,11.08
2023-01-03T20:21:49.871Z,11.09
2023-01-03T20:23:54.510Z,11.10
2023-01-03T20:25:56.207Z,11.08
2023-01-03T20:27:59.096Z,11.09
2023-01-03T20:30:00.811Z,11.07
2023-01-03T20:32:02.575Z,11.07
2023-01-03T20:34:06.694Z,11.07
2023-01-03T20:36:22.566Z,11.06
2023-01-03T20:38:26.789Z,11.04
2023-01-03T20:40:28.822Z,11.03
2023-01-03T20:42:30.931Z,11.03
2023-01-03T20:44:32.556Z,11.02
2023-01-03T20:46:34.232Z,11.02
2023-01-03T20:48:35.875Z,10.99
2023-01-03T20:50:40.658Z,11.00
2023-01-03T20:52:51.520Z,10.99
2023-01-03T20:54:53.571Z,10.95
2023-01-03T20:56:55.316Z,10.95
2023-01-03T20:58:56.839Z,10.94
2023-01-03T21:01:04.874Z,10.91
2023-01-03T21:03:13.375Z,10.91
2023-01-03T21:05:17.579Z,10.88
2023-01-03T21:07:50.400Z,10.88
2023-01-03T21:09:54.721Z,10.84
2023-01-03T21:11:56.542Z,10.85
2023-01-03T21:14:00.601Z,10.84
2023-01-03T21:16:02.659Z,10.83
2023-01-03T21:18:06.232Z,10.81
2023-01-03T21:21:40.373Z,10.79
2023-01-03T21:23:01.160Z,10.77
2023-01-03T21:25:03.054Z,10.75
2023-01-03T21:27:04.567Z,10.75
2023-01-03T21:29:12.313Z,10.72
2023-01-03T21:31:20.136Z,10.71
2023-01-03T21:33:22.175Z,10.69
2023-01-03T21:35:28.885Z,10.68
2023-01-03T21:37:30.447Z,10.66
2023-01-03T21:39:33.505Z,10.64
2023-01-03T21:41:56.168Z,10.64
2023-01-03T21:44:00.959Z,10.61
2023-01-03T21:46:12.152Z,10.60
2023-01-03T21:48:18.381Z,10.58
2023-01-03T21:50:20.935Z,10.56
2023-01-03T21:52:22.498Z,10.54
2023-01-03T21:54:26.267Z,10.53
2023-01-03T21:56:27.957Z,10.51
2023-01-03T21:58:32.447Z,10.49
2023-01-03T22:00:36.923Z,10.47
2023-01-03T22:03:00.941Z,10.45
2023-01-03T22:05:04.304Z,10.44
2023-01-03T22:07:08.400Z,10.40
2023-01-03T22:09:32.642Z,10.37
2023-01-03T22:11:34.838Z,10.36
2023-01-03T22:13:38.942Z,10.35
2023-01-03T22:15:40.689Z,10.31
2023-01-03T22:17:45.124Z,10.30
2023-01-03T22:19:47.019Z,10.28
2023-01-03T22:21:48.724Z,10.26
2023-01-03T22:23:50.298Z,10.22
2023-01-03T22:25:51.879Z,10.19
2023-01-03T22:27:57.975Z,10.17
2023-01-03T22:30:03.814Z,10.13
2023-01-03T22:32:05.543Z,10.11
2023-01-03T22:34:07.220Z,10.08
2023-01-03T22:36:09.411Z,10.04
2023-01-03T22:38:10.856Z,10.01
2023-01-03T22:40:16.871Z,9.97
2023-01-03T22:42:19.892Z,9.95
2023-01-03T22:44:21.490Z,9.92
2023-01-03T22:46:26.268Z,9.87
2023-01-03T22:48:28.064Z,9.85
2023-01-03T22:50:29.545Z,9.81
2023-01-03T22:52:31.611Z,9.78
2023-01-03T22:54:35.233Z,9.74
2023-01-03T22:56:36.846Z,9.72
2023-01-03T22:58:40.482Z,9.70
2023-01-03T23:00:42.552Z,9.66
2023-01-03T23:02:44.370Z,9.64
2023-01-03T23:04:50.827Z,9.62
2023-01-03T23:06:53.969Z,9.58
2023-01-03T23:08:56.358Z,9.56
2023-01-03T23:11:34.377Z,9.53
2023-01-03T23:13:36.350Z,9.49
2023-01-03T23:15:41.291Z,9.47
2023-01-03T23:17:58.202Z,9.45
2023-01-03T23:20:02.159Z,9.43
2023-01-03T23:22:09.441Z,9.40
2023-01-03T23:24:16.130Z,9.38
2023-01-03T23:26:18.074Z,9.37
2023-01-03T23:28:25.002Z,9.34
2023-01-03T23:30:30.266Z,9.33
2023-01-03T23:32:32.702Z,9.30
2023-01-03T23:34:34.329Z,9.29
2023-01-03T23:36:36.037Z,9.28
2023-01-03T23:38:37.572Z,9.28
2023-01-03T23:40:41.065Z,9.26
2023-01-03T23:42:42.799Z,9.24
2023-01-03T23:44:44.560Z,9.22
2023-01-03T23:46:46.454Z,9.22
2023-01-03T23:48:48.951Z,9.22
2023-01-03T23:50:50.659Z,9.20
2023-01-03T23:52:53.426Z,9.19
2023-01-03T23:55:03.630Z,9.17
2023-01-03T23:57:08.523Z,9.15
2023-01-03T23:59:12.136Z,9.12
